createdAt,value
2017-10-27T00:00:57.030Z,10.6
2017-10-27T00:01:58.634Z,10.8
2017-10-27T00:03:00.243Z,10.2
2017-10-27T00:04:01.856Z,10.1
2017-10-27T00:05:03.462Z,10.0
2017-10-27T00:06:05.075Z,10.2
2017-10-27T00:07:06.683Z,12.2
2017-10-27T00:08:08.295Z,12.2
2017-10-27T00:09:09.904Z,12.5
2017-10-27T00:10:11.515Z,12.5
2017-10-27T00:11:13.123Z,12.0
2017-10-27T00:12:14.736Z,11.6
2017-10-27T00:13:16.341Z,11.0
2017-10-27T00:14:17.955Z,11.0
2017-10-27T00:15:19.562Z,12.4
2017-10-27T00:16:21.177Z,11.5
2017-10-27T00:17:22.784Z,12.8
2017-10-27T00:18:24.397Z,11.8
2017-10-27T00:19:26.007Z,11.6
2017-10-27T00:20:28.435Z,13.4
2017-10-27T00:21:30.045Z,12.9
2017-10-27T00:22:31.659Z,11.4
2017-10-27T00:23:33.272Z,10.9
2017-10-27T00:24:34.876Z,11.2
2017-10-27T00:25:36.484Z,11.3
2017-10-27T00:26:38.098Z,11.4
2017-10-27T00:27:39.712Z,10.1
2017-10-27T00:28:41.316Z,11.4
2017-10-27T00:29:42.927Z,11.4
2017-10-27T00:30:44.545Z,9.7
2017-10-27T00:31:46.153Z,12.1
2017-10-27T00:32:47.760Z,12.1
2017-10-27T00:33:49.367Z,12.2
2017-10-27T00:34:50.980Z,12.4
2017-10-27T00:35:52.586Z,12.5
2017-10-27T00:36:54.200Z,12.9
2017-10-27T00:37:55.815Z,11.9
2017-10-27T00:38:57.419Z,12.6
2017-10-27T00:39:59.028Z,12.7
2017-10-27T00:41:00.634Z,12.8
2017-10-27T00:42:02.250Z,12.9
2017-10-27T00:43:03.859Z,14.2
2017-10-27T00:44:05.473Z,15.1
2017-10-27T00:45:07.082Z,15.4
2017-10-27T00:46:08.697Z,15.9
2017-10-27T00:47:10.300Z,17.7
2017-10-27T00:48:11.916Z,16.3
2017-10-27T00:49:13.522Z,16.5
2017-10-27T00:50:15.135Z,16.1
2017-10-27T00:51:16.742Z,13.3
2017-10-27T00:52:18.359Z,13.7
2017-10-27T00:53:19.968Z,12.2
2017-10-27T00:54:21.579Z,14.3
2017-10-27T00:55:23.182Z,12.0
2017-10-27T00:56:24.797Z,13.5
2017-10-27T00:57:26.405Z,12.8
2017-10-27T00:58:28.020Z,10.1
2017-10-27T00:59:29.629Z,11.6
2017-10-27T01:00:31.237Z,9.8
2017-10-27T01:01:32.847Z,10.1
2017-10-27T01:02:34.454Z,10.4
2017-10-27T01:03:36.072Z,12.0
2017-10-27T01:04:37.672Z,12.3
2017-10-27T01:05:39.284Z,12.7
2017-10-27T01:06:40.891Z,11.3
2017-10-27T01:07:42.502Z,15.7
2017-10-27T01:08:44.106Z,14.2
2017-10-27T01:09:45.719Z,14.1
2017-10-27T01:10:47.323Z,13.7
2017-10-27T01:11:48.938Z,12.6
2017-10-27T01:12:50.544Z,13.8
2017-10-27T01:13:52.159Z,13.2
2017-10-27T01:14:53.762Z,13.6
2017-10-27T01:15:55.376Z,16.4
2017-10-27T01:16:56.986Z,15.9
2017-10-27T01:17:58.594Z,17.8
2017-10-27T01:19:00.206Z,17.5
2017-10-27T01:20:01.819Z,15.3
2017-10-27T01:21:03.431Z,15.6
2017-10-27T01:22:05.036Z,16.4
2017-10-27T01:23:06.643Z,20.1
2017-10-27T01:24:08.256Z,17.9
2017-10-27T01:25:09.866Z,15.4
2017-10-27T01:26:11.472Z,18.2
2017-10-27T01:27:13.079Z,17.0
2017-10-27T01:28:14.694Z,19.9
2017-10-27T01:29:16.302Z,21.3
2017-10-27T01:30:17.906Z,22.0
2017-10-27T01:31:19.517Z,22.0
2017-10-27T01:32:21.125Z,20.4
2017-10-27T01:33:22.732Z,21.6
2017-10-27T01:34:24.344Z,25.1
2017-10-27T01:35:25.958Z,22.1
2017-10-27T01:36:27.560Z,24.5
2017-10-27T01:37:29.168Z,25.8
2017-10-27T01:38:30.780Z,24.0
2017-10-27T01:39:32.392Z,29.8
2017-10-27T01:40:34.012Z,28.4
2017-10-27T01:41:35.606Z,27.0
2017-10-27T01:42:37.223Z,25.7
2017-10-27T01:43:38.834Z,25.0
2017-10-27T01:44:40.438Z,23.6
2017-10-27T01:45:42.046Z,24.5
2017-10-27T01:46:43.656Z,27.1
2017-10-27T01:47:45.270Z,23.2
2017-10-27T01:48:46.877Z,27.6
2017-10-27T01:49:48.493Z,26.1
2017-10-27T01:50:50.099Z,30.5
2017-10-27T01:51:51.709Z,30.5
2017-10-27T01:52:53.315Z,30.0
2017-10-27T01:53:54.930Z,29.0
2017-10-27T01:54:56.534Z,29.5
2017-10-27T01:55:58.215Z,28.1
2017-10-27T01:56:59.828Z,27.5
2017-10-27T01:58:01.433Z,27.4
2017-10-27T01:59:03.040Z,28.5
2017-10-27T02:00:04.651Z,26.4
2017-10-27T02:01:06.257Z,27.0
2017-10-27T02:02:07.873Z,29.1
2017-10-27T02:04:19.422Z,30.8
2017-10-27T02:05:21.032Z,29.6
2017-10-27T02:06:22.637Z,30.5
2017-10-27T02:07:24.249Z,25.3
2017-10-27T02:08:25.852Z,28.8
2017-10-27T02:09:27.468Z,32.5
2017-10-27T02:10:29.065Z,28.8
2017-10-27T02:11:30.681Z,31.0
2017-10-27T02:12:32.286Z,34.5
2017-10-27T02:13:33.894Z,30.6
2017-10-27T02:14:35.499Z,30.7
2017-10-27T02:15:37.109Z,28.8
2017-10-27T02:16:38.713Z,28.5
2017-10-27T02:17:40.322Z,27.3
2017-10-27T02:18:41.929Z,25.2
2017-10-27T02:19:43.540Z,26.5
2017-10-27T02:20:45.149Z,24.8
2017-10-27T02:21:46.753Z,23.3
2017-10-27T02:22:48.366Z,22.7
2017-10-27T02:23:49.977Z,21.3
2017-10-27T02:24:51.583Z,17.8
2017-10-27T02:25:53.193Z,19.9
2017-10-27T02:26:54.800Z,24.5
2017-10-27T02:27:56.409Z,20.1
2017-10-27T02:28:58.021Z,26.3
2017-10-27T02:29:59.627Z,35.6
2017-10-27T02:31:01.239Z,29.8
2017-10-27T02:32:02.846Z,30.6
2017-10-27T02:33:04.459Z,29.6
2017-10-27T02:34:06.063Z,26.0
2017-10-27T02:35:07.672Z,30.0
2017-10-27T02:36:09.275Z,28.6
2017-10-27T02:37:10.889Z,26.5
2017-10-27T02:38:12.494Z,26.8
2017-10-27T02:39:14.102Z,26.5
2017-10-27T02:40:15.709Z,27.2
2017-10-27T02:41:17.323Z,29.1
2017-10-27T02:42:18.930Z,27.6
2017-10-27T02:43:20.542Z,29.9
2017-10-27T02:44:22.146Z,26.5
2017-10-27T02:45:23.758Z,29.4
2017-10-27T02:46:25.365Z,25.5
2017-10-27T02:47:26.977Z,24.5
2017-10-27T02:48:28.585Z,24.8
2017-10-27T02:49:30.193Z,24.3
2017-10-27T02:50:31.795Z,22.3
2017-10-27T02:51:33.401Z,24.8
2017-10-27T02:52:35.016Z,24.5
2017-10-27T02:53:36.628Z,23.7
2017-10-27T02:54:38.240Z,25.3
2017-10-27T02:55:39.848Z,25.2
2017-10-27T02:56:41.453Z,24.4
2017-10-27T02:57:43.064Z,24.0
2017-10-27T02:58:44.668Z,23.5
2017-10-27T02:59:46.280Z,22.8
2017-10-27T03:00:47.893Z,21.8
2017-10-27T03:01:49.502Z,22.7
2017-10-27T03:02:51.109Z,23.7
2017-10-27T03:03:52.715Z,22.7
2017-10-27T03:04:54.328Z,22.0
2017-10-27T03:05:55.937Z,20.6
2017-10-27T03:06:57.543Z,21.8
2017-10-27T03:07:59.150Z,22.3
2017-10-27T03:09:00.765Z,23.6
2017-10-27T03:10:02.375Z,24.1
2017-10-27T03:11:03.982Z,25.2
2017-10-27T03:12:05.592Z,24.4
2017-10-27T03:13:07.199Z,25.6
2017-10-27T03:14:08.804Z,25.1
2017-10-27T03:15:10.414Z,25.6
2017-10-27T03:16:12.022Z,23.1
2017-10-27T03:17:13.625Z,21.7
2017-10-27T03:18:15.230Z,21.4
2017-10-27T03:19:16.846Z,22.1
2017-10-27T03:20:18.452Z,25.1
2017-10-27T03:21:20.060Z,22.5
2017-10-27T03:22:21.666Z,22.3
2017-10-27T03:23:23.279Z,22.3
2017-10-27T03:24:24.880Z,20.9
2017-10-27T03:25:26.497Z,21.8
2017-10-27T03:26:28.099Z,21.2
2017-10-27T03:27:29.710Z,20.9
2017-10-27T03:28:31.313Z,20.6
2017-10-27T03:29:32.925Z,21.1
2017-10-27T03:30:34.531Z,22.4
2017-10-27T03:31:36.141Z,22.2
2017-10-27T03:32:37.750Z,22.0
2017-10-27T03:33:39.351Z,21.6
2017-10-27T03:34:40.965Z,22.3
2017-10-27T03:35:42.569Z,22.4
2017-10-27T03:36:44.179Z,25.5
2017-10-27T03:37:45.785Z,23.4
2017-10-27T03:38:47.398Z,25.2
2017-10-27T03:39:48.999Z,25.1
2017-10-27T03:40:50.612Z,24.5
2017-10-27T03:41:52.219Z,24.9
2017-10-27T03:42:53.827Z,24.4
2017-10-27T03:43:55.436Z,23.5
2017-10-27T03:44:57.054Z,25.6
2017-10-27T03:45:58.656Z,24.9
2017-10-27T03:47:00.262Z,25.6
2017-10-27T03:48:01.876Z,25.2
2017-10-27T03:49:03.476Z,23.4
2017-10-27T03:50:05.088Z,25.0
2017-10-27T03:51:06.700Z,25.4
2017-10-27T03:52:08.303Z,26.7
2017-10-27T03:53:09.909Z,26.6
2017-10-27T03:54:11.942Z,25.0
2017-10-27T03:55:13.540Z,25.3
2017-10-27T03:56:15.143Z,25.4
2017-10-27T03:57:16.754Z,25.6
2017-10-27T03:58:18.365Z,27.7
2017-10-27T03:59:19.972Z,26.8
2017-10-27T04:00:21.576Z,28.7
2017-10-27T04:01:23.198Z,28.2
2017-10-27T04:02:24.800Z,28.9
2017-10-27T04:03:26.407Z,28.2
2017-10-27T04:04:28.019Z,29.7
2017-10-27T04:05:29.631Z,29.6
2017-10-27T04:06:31.242Z,29.4
2017-10-27T04:07:32.852Z,30.2
2017-10-27T04:08:34.454Z,30.0
2017-10-27T04:09:36.064Z,30.5
2017-10-27T04:10:37.676Z,31.5
2017-10-27T04:11:39.289Z,30.6
2017-10-27T04:12:40.893Z,30.5
2017-10-27T04:13:42.500Z,26.3
2017-10-27T04:14:44.116Z,30.6
2017-10-27T04:15:45.730Z,30.2
2017-10-27T04:16:47.337Z,28.0
2017-10-27T04:17:48.947Z,29.0
2017-10-27T04:18:50.553Z,21.0
2017-10-27T04:19:52.166Z,29.6
2017-10-27T04:20:53.769Z,31.7
2017-10-27T04:21:55.377Z,34.0
2017-10-27T04:22:56.987Z,31.4
2017-10-27T04:23:58.595Z,33.5
2017-10-27T04:25:00.200Z,34.5
2017-10-27T04:26:01.805Z,34.8
2017-10-27T04:27:03.424Z,37.2
2017-10-27T04:28:05.029Z,37.0
2017-10-27T04:29:06.641Z,38.8
2017-10-27T04:30:08.242Z,36.6
2017-10-27T04:31:09.859Z,34.7
2017-10-27T04:32:11.463Z,33.9
2017-10-27T04:33:13.075Z,35.9
2017-10-27T04:34:14.683Z,37.3
2017-10-27T04:35:16.289Z,36.1
2017-10-27T04:36:17.892Z,39.1
2017-10-27T04:37:19.501Z,38.0
2017-10-27T04:38:21.109Z,39.7
2017-10-27T04:39:22.737Z,38.1
2017-10-27T04:40:24.340Z,39.0
2017-10-27T04:41:25.954Z,41.2
2017-10-27T04:42:27.561Z,39.8
2017-10-27T04:43:29.161Z,40.1
2017-10-27T04:44:30.767Z,42.1
2017-10-27T04:45:32.380Z,38.5
2017-10-27T04:46:33.989Z,42.1
2017-10-27T04:47:35.594Z,42.1
2017-10-27T04:48:37.202Z,44.6
2017-10-27T04:49:38.817Z,43.2
2017-10-27T04:50:40.418Z,44.0
2017-10-27T04:51:42.027Z,43.8
2017-10-27T04:52:43.631Z,42.7
2017-10-27T04:53:45.242Z,44.7
2017-10-27T04:54:46.847Z,45.5
2017-10-27T04:55:48.456Z,45.8
2017-10-27T04:56:50.064Z,44.3
2017-10-27T04:57:51.675Z,42.4
2017-10-27T04:58:53.279Z,46.4
2017-10-27T04:59:54.894Z,48.0
2017-10-27T05:00:56.501Z,48.0
2017-10-27T05:01:58.114Z,49.3
2017-10-27T05:02:59.719Z,49.0
2017-10-27T05:04:01.333Z,49.6
2017-10-27T05:05:02.949Z,50.9
2017-10-27T05:06:04.552Z,52.3
2017-10-27T05:07:06.177Z,49.7
2017-10-27T05:08:07.767Z,49.2
2017-10-27T05:09:09.380Z,48.3
2017-10-27T05:10:10.984Z,48.2
2017-10-27T05:11:12.599Z,44.5
2017-10-27T05:12:14.202Z,47.9
2017-10-27T05:13:15.812Z,48.7
2017-10-27T05:14:17.417Z,50.6
2017-10-27T05:15:19.027Z,50.0
2017-10-27T05:16:20.631Z,49.2
2017-10-27T05:17:22.243Z,49.0
2017-10-27T05:18:23.847Z,45.8
2017-10-27T05:19:25.457Z,48.2
2017-10-27T05:20:27.061Z,46.6
2017-10-27T05:21:28.670Z,48.4
2017-10-27T05:22:30.281Z,48.3
2017-10-27T05:23:31.891Z,48.0
2017-10-27T05:24:33.500Z,48.5
2017-10-27T05:25:35.108Z,46.0
2017-10-27T05:26:36.722Z,48.6
2017-10-27T05:27:38.330Z,48.2
2017-10-27T05:28:39.934Z,48.2
2017-10-27T05:29:41.538Z,47.0
2017-10-27T05:30:43.147Z,47.9
2017-10-27T05:31:44.759Z,48.1
2017-10-27T05:32:46.365Z,46.1
2017-10-27T05:33:47.969Z,44.8
2017-10-27T05:34:49.576Z,44.3
2017-10-27T05:35:51.187Z,44.3
2017-10-27T05:36:52.791Z,44.3
2017-10-27T05:37:54.400Z,41.4
2017-10-27T05:38:56.014Z,43.9
2017-10-27T05:39:57.621Z,43.7
2017-10-27T05:40:59.232Z,42.7
2017-10-27T05:42:00.837Z,42.9
2017-10-27T05:43:02.448Z,42.3
2017-10-27T05:44:04.051Z,40.4
2017-10-27T05:45:05.662Z,42.8
2017-10-27T05:46:07.267Z,42.0
2017-10-27T05:47:08.877Z,42.0
2017-10-27T05:48:10.484Z,42.3
2017-10-27T05:49:12.087Z,42.2
2017-10-27T05:50:13.693Z,41.1
2017-10-27T05:51:15.304Z,42.9
2017-10-27T05:52:16.914Z,42.8
2017-10-27T05:53:18.522Z,41.4
2017-10-27T05:54:20.134Z,42.2
2017-10-27T05:55:21.737Z,41.0
2017-10-27T05:56:23.349Z,41.3
2017-10-27T05:57:24.950Z,40.5
2017-10-27T05:58:26.562Z,41.7
2017-10-27T05:59:28.168Z,44.0
2017-10-27T06:00:29.779Z,44.8
2017-10-27T06:01:31.387Z,41.9
2017-10-27T06:02:32.993Z,43.4
2017-10-27T06:03:34.601Z,48.3
2017-10-27T06:04:36.208Z,46.3
2017-10-27T06:05:37.820Z,44.5
2017-10-27T06:06:39.424Z,45.9
2017-10-27T06:07:41.039Z,42.9
2017-10-27T06:08:42.646Z,44.8
2017-10-27T06:09:44.256Z,49.5
2017-10-27T06:10:45.864Z,47.7
2017-10-27T06:11:47.474Z,48.3
2017-10-27T06:12:49.087Z,48.8
2017-10-27T06:13:50.690Z,50.4
2017-10-27T06:14:52.305Z,50.5
2017-10-27T06:15:53.918Z,51.7
2017-10-27T06:16:55.529Z,52.5
2017-10-27T06:17:57.131Z,48.3
2017-10-27T06:18:58.744Z,53.7
2017-10-27T06:20:00.352Z,58.6
2017-10-27T06:21:01.972Z,58.6
2017-10-27T06:22:03.574Z,57.5
2017-10-27T06:23:05.189Z,57.9
2017-10-27T06:24:06.793Z,58.6
2017-10-27T06:25:08.416Z,59.3
2017-10-27T06:26:10.019Z,60.9
2017-10-27T06:27:11.628Z,60.1
2017-10-27T06:28:13.236Z,61.0
2017-10-27T06:29:14.851Z,65.1
2017-10-27T06:30:16.469Z,70.1
2017-10-27T06:31:18.080Z,66.8
2017-10-27T06:32:19.687Z,65.5
2017-10-27T06:33:21.296Z,64.8
2017-10-27T06:34:22.909Z,64.9
2017-10-27T06:35:24.516Z,63.4
2017-10-27T06:36:26.132Z,63.2
2017-10-27T06:37:27.744Z,61.1
2017-10-27T06:38:29.349Z,61.6
2017-10-27T06:39:30.957Z,60.0
2017-10-27T06:40:32.575Z,61.9
2017-10-27T06:41:34.185Z,62.8
2017-10-27T06:42:35.792Z,62.4
2017-10-27T06:43:37.404Z,63.8
2017-10-27T06:44:39.017Z,64.1
2017-10-27T06:45:40.631Z,65.1
2017-10-27T06:46:42.241Z,61.4
2017-10-27T06:47:43.849Z,64.7
2017-10-27T06:48:45.462Z,64.0
2017-10-27T06:49:47.070Z,65.6
2017-10-27T06:50:48.701Z,67.7
2017-10-27T06:51:50.301Z,69.9
2017-10-27T06:52:51.909Z,67.5
2017-10-27T06:53:53.520Z,67.7
2017-10-27T06:54:55.134Z,66.8
2017-10-27T06:55:56.747Z,66.7
2017-10-27T06:56:58.359Z,66.7
2017-10-27T06:57:59.973Z,66.4
2017-10-27T06:59:01.590Z,70.2
2017-10-27T07:00:03.205Z,66.7
2017-10-27T07:01:04.817Z,69.1
2017-10-27T07:02:06.431Z,68.2
2017-10-27T07:03:08.040Z,65.1
2017-10-27T07:04:09.657Z,65.2
2017-10-27T07:05:11.267Z,67.0
2017-10-27T07:06:12.886Z,64.8
2017-10-27T07:07:14.501Z,68.4
2017-10-27T07:08:16.105Z,68.8
2017-10-27T07:09:17.723Z,68.8
2017-10-27T07:10:19.330Z,68.2
2017-10-27T07:11:20.947Z,69.9
2017-10-27T07:12:22.558Z,68.4
2017-10-27T07:13:24.182Z,70.7
2017-10-27T07:14:25.786Z,72.4
2017-10-27T07:15:27.402Z,72.3
2017-10-27T07:16:29.010Z,76.6
2017-10-27T07:17:30.622Z,72.2
2017-10-27T07:18:32.233Z,74.8
2017-10-27T07:19:33.853Z,74.5
2017-10-27T07:20:35.463Z,75.8
2017-10-27T07:21:37.080Z,75.0
2017-10-27T07:22:38.687Z,73.8
2017-10-27T07:23:40.299Z,73.9
2017-10-27T07:24:41.912Z,71.7
2017-10-27T07:25:43.530Z,69.5
2017-10-27T07:26:45.141Z,70.4
2017-10-27T07:27:46.754Z,73.7
2017-10-27T07:28:48.371Z,70.4
2017-10-27T07:29:49.977Z,72.0
2017-10-27T07:30:51.593Z,70.9
2017-10-27T07:31:53.203Z,72.0
2017-10-27T07:32:54.816Z,70.7
2017-10-27T07:33:56.430Z,71.1
2017-10-27T07:34:58.046Z,71.9
2017-10-27T07:35:59.660Z,72.1
2017-10-27T07:37:01.271Z,72.1
2017-10-27T07:38:02.883Z,69.6
2017-10-27T07:39:04.498Z,70.2
2017-10-27T07:40:06.112Z,70.0
2017-10-27T07:41:07.730Z,69.9
2017-10-27T07:42:09.339Z,71.6
2017-10-27T07:43:10.950Z,72.9
2017-10-27T07:44:12.564Z,75.1
2017-10-27T07:45:14.179Z,75.4
2017-10-27T07:46:15.789Z,75.5
2017-10-27T07:47:17.403Z,74.9
2017-10-27T07:48:19.020Z,75.7
2017-10-27T07:49:20.631Z,73.0
2017-10-27T07:50:22.245Z,76.2
2017-10-27T07:51:23.861Z,77.4
2017-10-27T07:52:25.474Z,76.4
2017-10-27T07:53:27.092Z,77.1
2017-10-27T07:54:28.708Z,75.8
2017-10-27T07:55:30.317Z,76.1
2017-10-27T07:56:31.937Z,73.9
2017-10-27T07:57:33.572Z,77.7
2017-10-27T07:58:35.179Z,76.8
2017-10-27T07:59:36.792Z,78.6
2017-10-27T08:00:38.409Z,76.2
2017-10-27T08:01:40.048Z,78.7
2017-10-27T08:02:41.649Z,78.4
2017-10-27T08:03:43.265Z,78.4
2017-10-27T08:04:44.879Z,82.1
2017-10-27T08:05:46.513Z,80.0
2017-10-27T08:06:48.105Z,82.0
2017-10-27T08:07:49.717Z,85.4
2017-10-27T08:08:51.330Z,94.8
2017-10-27T08:09:52.944Z,87.0
2017-10-27T08:10:54.558Z,90.3
2017-10-27T08:11:56.175Z,90.2
2017-10-27T08:12:57.785Z,92.5
2017-10-27T08:13:59.394Z,94.8
2017-10-27T08:15:01.037Z,92.6
2017-10-27T08:16:02.639Z,91.2
2017-10-27T08:17:04.258Z,89.2
2017-10-27T08:18:05.869Z,93.4
2017-10-27T08:19:07.493Z,97.4
2017-10-27T08:20:09.103Z,95.9
2017-10-27T08:21:10.722Z,94.0
2017-10-27T08:22:12.331Z,99.5
2017-10-27T08:23:13.947Z,100.0
2017-10-27T08:24:15.569Z,100.0
2017-10-27T08:25:17.182Z,100.0
2017-10-27T08:26:18.798Z,100.0
2017-10-27T08:27:20.410Z,100.0
2017-10-27T08:28:22.038Z,100.0
2017-10-27T08:29:23.658Z,100.0
2017-10-27T08:30:25.280Z,100.0
2017-10-27T08:31:26.890Z,100.0
2017-10-27T08:32:28.512Z,100.0
2017-10-27T08:33:30.123Z,100.0
2017-10-27T08:34:31.743Z,100.0
2017-10-27T08:35:33.357Z,100.0
2017-10-27T08:36:34.976Z,100.0
2017-10-27T08:37:36.592Z,100.0
2017-10-27T08:38:38.212Z,100.0
2017-10-27T08:39:39.833Z,100.0
2017-10-27T08:40:41.447Z,100.0
2017-10-27T08:41:43.066Z,100.0
2017-10-27T08:42:44.684Z,100.0
2017-10-27T08:43:46.294Z,100.0
2017-10-27T08:44:47.911Z,100.0
2017-10-27T08:45:49.529Z,100.0
2017-10-27T08:46:51.154Z,100.0
2017-10-27T08:47:52.764Z,100.0
2017-10-27T08:48:54.376Z,100.0
2017-10-27T08:49:55.996Z,100.0
2017-10-27T08:50:57.612Z,100.0
2017-10-27T08:51:59.244Z,100.0
2017-10-27T08:53:00.852Z,100.0
2017-10-27T08:54:02.476Z,100.0
2017-10-27T08:55:04.095Z,100.0
2017-10-27T08:56:05.706Z,100.0
2017-10-27T08:57:07.327Z,100.0
2017-10-27T08:58:08.940Z,100.0
2017-10-27T08:59:10.566Z,100.0
2017-10-27T09:00:12.178Z,100.0
2017-10-27T09:01:13.801Z,100.0
2017-10-27T09:02:15.410Z,100.0
2017-10-27T09:03:17.026Z,100.0
2017-10-27T09:04:18.648Z,100.0
2017-10-27T09:05:20.267Z,100.0
2017-10-27T09:06:21.883Z,100.0
2017-10-27T09:07:23.498Z,100.0
2017-10-27T09:08:25.121Z,100.0
2017-10-27T09:09:26.740Z,100.0
2017-10-27T09:10:28.353Z,100.0
2017-10-27T09:11:29.968Z,100.0
2017-10-27T09:12:31.586Z,100.0
2017-10-27T09:13:33.207Z,100.0
2017-10-27T09:14:34.825Z,100.0
2017-10-27T09:15:36.442Z,100.0
2017-10-27T09:16:38.061Z,100.0
2017-10-27T09:17:39.680Z,100.0
2017-10-27T09:18:41.292Z,100.0
2017-10-27T09:19:42.918Z,100.0
2017-10-27T09:20:44.528Z,100.0
2017-10-27T09:21:46.145Z,100.0
2017-10-27T09:22:47.772Z,100.0
2017-10-27T09:23:49.392Z,100.0
2017-10-27T09:24:51.004Z,100.0
2017-10-27T09:25:52.623Z,100.0
2017-10-27T09:26:54.244Z,100.0
2017-10-27T09:27:55.857Z,100.0
2017-10-27T09:28:57.481Z,100.0
2017-10-27T09:29:59.101Z,100.0
2017-10-27T09:31:00.719Z,100.0
2017-10-27T09:32:02.335Z,100.0
2017-10-27T09:33:03.956Z,100.0
2017-10-27T09:34:05.575Z,100.0
2017-10-27T09:35:07.192Z,100.0
2017-10-27T09:36:08.809Z,100.0
2017-10-27T09:37:10.433Z,100.0
2017-10-27T09:38:12.046Z,100.0
2017-10-27T09:39:13.666Z,100.0
2017-10-27T09:40:15.279Z,100.0
2017-10-27T09:41:16.902Z,100.0
2017-10-27T09:42:18.517Z,100.0
2017-10-27T09:43:20.141Z,100.0
2017-10-27T09:44:21.758Z,100.0
2017-10-27T09:45:23.380Z,100.0
2017-10-27T09:46:24.993Z,100.0
2017-10-27T09:47:26.611Z,100.0
2017-10-27T09:48:28.228Z,100.0
2017-10-27T09:49:29.848Z,100.0
2017-10-27T09:50:31.463Z,100.0
2017-10-27T09:51:33.084Z,100.0
2017-10-27T09:52:34.704Z,100.0
2017-10-27T09:53:36.314Z,100.0
2017-10-27T09:54:37.933Z,100.0
2017-10-27T09:55:39.549Z,100.0
2017-10-27T09:56:41.170Z,100.0
2017-10-27T09:57:42.784Z,100.0
2017-10-27T09:58:44.407Z,100.0
2017-10-27T09:59:46.037Z,100.0
2017-10-27T10:00:47.639Z,100.0
2017-10-27T10:01:49.253Z,100.0
2017-10-27T10:02:50.872Z,100.0
2017-10-27T10:03:52.486Z,100.0
2017-10-27T10:04:54.108Z,100.0
2017-10-27T10:05:55.721Z,100.0
2017-10-27T10:06:57.341Z,100.0
2017-10-27T10:07:58.956Z,100.0
2017-10-27T10:09:00.573Z,100.0
2017-10-27T10:10:02.189Z,100.0
2017-10-27T10:11:03.809Z,100.0
2017-10-27T10:12:05.427Z,100.0
2017-10-27T10:13:07.046Z,100.0
2017-10-27T10:14:08.657Z,100.0
2017-10-27T10:15:10.276Z,100.0
2017-10-27T10:16:11.888Z,100.0
2017-10-27T10:17:13.502Z,100.0
2017-10-27T10:18:15.123Z,100.0
2017-10-27T10:19:16.742Z,100.0
2017-10-27T10:20:18.360Z,100.0
2017-10-27T10:21:19.974Z,100.0
2017-10-27T10:22:21.594Z,100.0
2017-10-27T10:23:23.212Z,100.0
2017-10-27T10:24:24.824Z,100.0
2017-10-27T10:25:26.444Z,100.0
2017-10-27T10:26:28.060Z,100.0
2017-10-27T10:27:29.680Z,100.0
2017-10-27T10:28:31.293Z,100.0
2017-10-27T10:29:32.905Z,100.0
2017-10-27T10:30:34.524Z,100.0
2017-10-27T10:31:37.894Z,100.0
2017-10-27T10:32:39.508Z,100.0
2017-10-27T10:33:41.126Z,100.0
2017-10-27T10:34:42.749Z,100.0
2017-10-27T10:35:44.372Z,100.0
2017-10-27T10:36:45.980Z,100.0
2017-10-27T10:37:47.597Z,100.0
2017-10-27T10:38:49.222Z,100.0
2017-10-27T10:39:50.841Z,100.0
2017-10-27T10:40:52.458Z,100.0
2017-10-27T10:41:54.073Z,100.0
2017-10-27T10:42:55.695Z,100.0
2017-10-27T10:43:57.309Z,100.0
2017-10-27T10:44:58.925Z,100.0
2017-10-27T10:46:00.538Z,100.0
2017-10-27T10:47:02.159Z,100.0
2017-10-27T10:48:03.780Z,100.0
2017-10-27T10:49:05.398Z,100.0
2017-10-27T10:50:07.013Z,100.0
2017-10-27T10:51:08.630Z,100.0
2017-10-27T10:52:10.255Z,100.0
2017-10-27T10:53:11.869Z,100.0
2017-10-27T10:54:13.485Z,100.0
2017-10-27T10:55:15.105Z,100.0
2017-10-27T10:56:16.720Z,100.0
2017-10-27T10:57:18.338Z,100.0
2017-10-27T10:58:19.951Z,100.0
2017-10-27T10:59:21.568Z,100.0
2017-10-27T11:00:23.194Z,100.0
2017-10-27T11:01:24.809Z,100.0
2017-10-27T11:02:26.418Z,100.0
2017-10-27T11:03:28.039Z,100.0
2017-10-27T11:04:29.651Z,100.0
2017-10-27T11:05:31.273Z,100.0
2017-10-27T11:06:32.893Z,100.0
2017-10-27T11:07:34.510Z,100.0
2017-10-27T11:08:36.135Z,100.0
2017-10-27T11:09:37.752Z,100.0
2017-10-27T11:10:39.375Z,100.0
2017-10-27T11:11:40.989Z,100.0
2017-10-27T11:12:42.610Z,100.0
2017-10-27T11:13:44.231Z,100.0
2017-10-27T11:14:45.845Z,100.0
2017-10-27T11:15:47.463Z,100.0
2017-10-27T11:16:49.084Z,100.0
2017-10-27T11:17:50.710Z,100.0
2017-10-27T11:18:52.321Z,100.0
2017-10-27T11:19:53.935Z,100.0
2017-10-27T11:20:55.551Z,100.0
2017-10-27T11:21:57.172Z,100.0
2017-10-27T11:22:58.790Z,100.0
2017-10-27T11:24:00.407Z,100.0
2017-10-27T11:25:02.024Z,100.0
2017-10-27T11:26:03.643Z,100.0
2017-10-27T11:27:05.261Z,100.0
2017-10-27T11:28:06.874Z,100.0
2017-10-27T11:29:08.492Z,100.0
2017-10-27T11:30:10.112Z,100.0
2017-10-27T11:31:11.725Z,100.0
2017-10-27T11:32:13.348Z,100.0
2017-10-27T11:33:14.960Z,100.0
2017-10-27T11:34:16.589Z,100.0
2017-10-27T11:35:18.208Z,98.8
2017-10-27T11:36:19.826Z,100.0
2017-10-27T11:37:21.444Z,98.3
2017-10-27T11:38:23.056Z,97.6
2017-10-27T11:39:24.675Z,96.3
2017-10-27T11:40:26.289Z,100.0
2017-10-27T11:41:27.900Z,97.4
2017-10-27T11:42:29.521Z,96.1
2017-10-27T11:43:31.136Z,98.1
2017-10-27T11:44:32.748Z,96.5
2017-10-27T11:45:34.365Z,96.0
2017-10-27T11:46:35.982Z,95.4
2017-10-27T11:47:37.594Z,92.2
2017-10-27T11:48:39.211Z,90.6
2017-10-27T11:49:40.829Z,94.8
2017-10-27T11:50:42.441Z,94.5
2017-10-27T11:51:44.059Z,90.2
2017-10-27T11:52:45.676Z,92.4
2017-10-27T11:53:47.288Z,94.7
2017-10-27T11:54:48.905Z,92.3
2017-10-27T11:55:50.516Z,93.6
2017-10-27T11:56:52.137Z,93.0
2017-10-27T11:57:53.747Z,96.5
2017-10-27T11:58:55.368Z,96.0
2017-10-27T11:59:56.979Z,95.6
2017-10-27T12:00:58.612Z,95.4
2017-10-27T12:02:00.225Z,100.0
2017-10-27T12:03:01.845Z,100.0
2017-10-27T12:04:03.466Z,100.0
2017-10-27T12:05:05.080Z,100.0
2017-10-27T12:06:06.697Z,100.0
2017-10-27T12:07:08.321Z,100.0
2017-10-27T12:08:09.948Z,100.0
2017-10-27T12:09:11.550Z,100.0
2017-10-27T12:10:13.166Z,100.0
2017-10-27T12:11:14.785Z,100.0
2017-10-27T12:12:16.406Z,100.0
2017-10-27T12:13:18.020Z,100.0
2017-10-27T12:14:19.643Z,100.0
2017-10-27T12:15:21.262Z,100.0
2017-10-27T12:16:22.888Z,100.0
2017-10-27T12:17:24.495Z,100.0
2017-10-27T12:18:26.116Z,100.0
2017-10-27T12:19:27.729Z,100.0
2017-10-27T12:20:29.353Z,100.0
2017-10-27T12:21:30.966Z,100.0
2017-10-27T12:22:32.584Z,100.0
2017-10-27T12:23:34.199Z,100.0
2017-10-27T12:24:35.813Z,100.0
2017-10-27T12:25:37.433Z,100.0
2017-10-27T12:26:39.049Z,100.0
2017-10-27T12:27:40.666Z,100.0
2017-10-27T12:28:42.288Z,100.0
2017-10-27T12:29:43.902Z,100.0
2017-10-27T12:30:45.516Z,100.0
2017-10-27T12:31:47.138Z,100.0
2017-10-27T12:32:48.755Z,100.0
2017-10-27T12:33:50.366Z,100.0
2017-10-27T12:34:51.983Z,100.0
2017-10-27T12:35:53.606Z,100.0
2017-10-27T12:36:55.228Z,100.0
2017-10-27T12:37:56.839Z,100.0
2017-10-27T12:38:58.459Z,100.0
2017-10-27T12:40:00.081Z,100.0
2017-10-27T12:41:01.694Z,100.0
2017-10-27T12:42:03.313Z,100.0
2017-10-27T12:43:04.929Z,100.0
2017-10-27T12:44:06.557Z,100.0
2017-10-27T12:45:08.176Z,100.0
2017-10-27T12:46:09.792Z,100.0
2017-10-27T12:47:11.415Z,100.0
2017-10-27T12:48:13.032Z,100.0
2017-10-27T12:49:14.652Z,100.0
2017-10-27T12:50:16.268Z,100.0
2017-10-27T12:51:17.887Z,100.0
2017-10-27T12:52:19.507Z,100.0
2017-10-27T12:53:21.122Z,100.0
2017-10-27T12:54:22.737Z,100.0
2017-10-27T12:55:24.357Z,100.0
2017-10-27T12:56:25.975Z,100.0
2017-10-27T12:57:27.590Z,100.0
2017-10-27T12:58:29.208Z,100.0
2017-10-27T12:59:30.832Z,100.0
2017-10-27T13:00:32.454Z,100.0
2017-10-27T13:01:34.061Z,100.0
2017-10-27T13:02:35.685Z,100.0
2017-10-27T13:03:37.304Z,100.0
2017-10-27T13:04:38.925Z,100.0
2017-10-27T13:05:40.539Z,100.0
2017-10-27T13:06:42.160Z,100.0
2017-10-27T13:07:43.775Z,100.0
2017-10-27T13:08:45.395Z,100.0
2017-10-27T13:09:47.009Z,100.0
2017-10-27T13:10:48.630Z,100.0
2017-10-27T13:11:50.251Z,100.0
2017-10-27T13:12:51.866Z,100.0
2017-10-27T13:13:53.493Z,100.0
2017-10-27T13:14:55.100Z,100.0
2017-10-27T13:15:56.722Z,100.0
2017-10-27T13:16:58.340Z,100.0
2017-10-27T13:17:59.953Z,100.0
2017-10-27T13:19:01.577Z,100.0
2017-10-27T13:20:03.196Z,100.0
2017-10-27T13:21:04.808Z,100.0
2017-10-27T13:22:06.422Z,100.0
2017-10-27T13:23:08.042Z,100.0
2017-10-27T13:24:09.661Z,100.0
2017-10-27T13:25:11.276Z,100.0
2017-10-27T13:26:12.893Z,100.0
2017-10-27T13:27:14.514Z,100.0
2017-10-27T13:28:16.130Z,100.0
2017-10-27T13:29:17.741Z,100.0
2017-10-27T13:30:19.358Z,100.0
2017-10-27T13:31:20.978Z,100.0
2017-10-27T13:32:22.602Z,100.0